首页
METAR-TAF:

METAR-TAF

机场 :

伯尔尼-贝尔普机场

伯尔尼, 瑞士

纬度: 46-55N, 经度: 007-30E, 海拔: 505米

当前天气观测

该预报发布于30分钟前的19:50 UTC
风速3节,风向西,在南转西南北转西北之间变化
温度 5°C
湿度 75%
气压 1019 hPa
能见度10公里或以上
1500米以下无云,无积雨云

METAR: LSZB 291950Z AUTO 26003KT 210V340 CAVOK 05/01 Q1019

时间: 21:20 (20:20 UTC)

预报

该预报发布于5小时和55分钟前的14:25 UTC
预报有效从29日的 15点(UTC)到 29日的 24点(UTC)
风速8节,风向西
能见度10公里或以上
散云层高于1500英尺
多云层高于2500英尺
短暂存在
从 29日的 15点(UTC)到 29日的 18点(UTC)
多云层高于1200英尺
阵雨

TAF: LSZB 291425Z 2915/2924 26008KT 9999 SCT015 BKN025 TEMPO 2915/2918 SHRA BKN012

超过4000个机场的气象观测和天气预报(METAR&TAF报告)。

可查询的气象台以黄色和红色小点在地图上表示。

将鼠标移到小点上方,可查看气象台名称。

然后点击查看天气观测和预报。

如需切换地图:点击带黑十字的绿色按钮放大地图;点击带横线的绿色按钮缩小地图;或者点击绿色箭头查看邻近地区的地图。


METAR-TAF: